createdAt,value
2019-05-13T00:00:11.171Z,4.40
2019-05-13T00:00:47.045Z,4.40
2019-05-13T00:01:23.772Z,5.47
2019-05-13T00:02:04.634Z,4.63
2019-05-13T00:02:40.824Z,5.23
2019-05-13T00:03:16.797Z,4.50
2019-05-13T00:03:54.200Z,4.50
2019-05-13T00:04:30.247Z,4.33
2019-05-13T00:05:06.451Z,4.40
2019-05-13T00:05:44.587Z,4.60
2019-05-13T00:06:20.041Z,4.17
2019-05-13T00:06:57.714Z,4.33
2019-05-13T00:07:34.294Z,4.77
2019-05-13T00:08:10.269Z,4.27
2019-05-13T00:08:48.147Z,3.93
2019-05-13T00:09:24.578Z,4.17
2019-05-13T00:10:00.568Z,4.53
2019-05-13T00:10:36.463Z,3.40
2019-05-13T00:11:13.618Z,4.50
2019-05-13T00:11:54.067Z,5.70
2019-05-13T00:12:50.406Z,4.53
2019-05-13T00:13:26.411Z,5.20
2019-05-13T00:14:04.261Z,4.83
2019-05-13T00:14:39.995Z,5.30
2019-05-13T00:15:16.395Z,5.50
2019-05-13T00:15:54.396Z,5.03
2019-05-13T00:16:30.287Z,4.67
2019-05-13T00:17:06.307Z,5.83
2019-05-13T00:17:44.564Z,4.90
2019-05-13T00:18:20.772Z,3.60
2019-05-13T00:18:59.479Z,5.33
2019-05-13T00:19:35.369Z,4.67
2019-05-13T00:22:18.467Z,5.10
2019-05-13T00:22:54.389Z,4.47
2019-05-13T00:23:33.942Z,5.13
2019-05-13T00:24:09.789Z,5.40
2019-05-13T00:24:45.743Z,4.70
2019-05-13T00:25:24.069Z,4.73
2019-05-13T00:26:07.596Z,4.77
2019-05-13T00:26:44.411Z,5.10
2019-05-13T00:27:20.808Z,4.80
2019-05-13T00:27:56.749Z,5.20
2019-05-13T00:28:34.267Z,4.70
2019-05-13T00:29:10.402Z,4.50
2019-05-13T00:29:46.273Z,5.00
2019-05-13T00:30:23.511Z,4.67
2019-05-13T00:30:59.787Z,3.77
2019-05-13T00:31:36.400Z,5.00
2019-05-13T00:32:13.501Z,4.67
2019-05-13T00:32:50.669Z,4.30
2019-05-13T00:33:26.554Z,4.10
2019-05-13T00:34:03.684Z,5.10
2019-05-13T00:34:39.869Z,3.87
2019-05-13T00:35:15.955Z,4.80
2019-05-13T00:35:53.410Z,3.70
2019-05-13T00:36:29.687Z,4.30
2019-05-13T00:37:10.808Z,3.80
2019-05-13T00:37:44.234Z,4.23
2019-05-13T00:38:20.477Z,4.20
2019-05-13T00:38:56.388Z,4.13
2019-05-13T00:39:33.620Z,4.00
2019-05-13T00:40:09.842Z,4.70
2019-05-13T00:40:45.854Z,3.33
2019-05-13T00:41:21.675Z,4.57
2019-05-13T00:41:57.587Z,3.33
2019-05-13T00:42:35.750Z,3.83
2019-05-13T00:43:14.040Z,4.50
2019-05-13T00:43:49.297Z,4.10
2019-05-13T00:44:25.257Z,4.63
2019-05-13T00:45:03.849Z,4.40
2019-05-13T00:45:38.898Z,4.73
2019-05-13T00:46:14.724Z,3.80
2019-05-13T00:46:50.622Z,4.60
2019-05-13T00:47:26.552Z,4.23
2019-05-13T00:48:04.465Z,4.00
2019-05-13T00:48:40.262Z,4.10
2019-05-13T00:49:16.196Z,3.87
2019-05-13T00:49:54.059Z,4.40
2019-05-13T00:50:30.002Z,4.53
2019-05-13T00:51:05.890Z,4.60
2019-05-13T00:51:44.222Z,5.07
2019-05-13T00:52:23.567Z,4.77
2019-05-13T00:52:59.677Z,4.90
2019-05-13T00:53:38.016Z,4.57
2019-05-13T00:54:13.853Z,5.43
2019-05-13T00:54:49.746Z,4.70
2019-05-13T00:55:25.697Z,5.83
2019-05-13T00:56:03.887Z,5.83
2019-05-13T00:56:39.314Z,5.00
2019-05-13T00:57:15.201Z,5.50
2019-05-13T00:57:51.092Z,5.73
2019-05-13T00:58:26.934Z,5.47
2019-05-13T00:59:03.682Z,5.57
2019-05-13T00:59:39.694Z,5.70
2019-05-13T01:00:16.211Z,5.43
2019-05-13T01:00:54.427Z,4.90
2019-05-13T01:01:29.791Z,5.63
2019-05-13T01:02:05.843Z,6.03
2019-05-13T01:02:44.336Z,5.90
2019-05-13T01:03:19.381Z,6.30
2019-05-13T01:03:55.285Z,5.07
2019-05-13T01:04:31.178Z,6.07
2019-05-13T01:05:07.232Z,6.77
2019-05-13T01:05:44.570Z,5.60
2019-05-13T01:06:20.709Z,5.93
2019-05-13T01:06:56.597Z,6.37
2019-05-13T01:07:34.160Z,5.63
2019-05-13T01:08:10.135Z,5.60
2019-05-13T01:08:46.041Z,5.93
2019-05-13T01:09:25.991Z,5.47
2019-05-13T01:10:04.022Z,5.07
2019-05-13T01:10:39.541Z,5.70
2019-05-13T01:11:15.409Z,5.53
2019-05-13T01:11:53.531Z,5.60
2019-05-13T01:12:29.030Z,6.40
2019-05-13T01:13:06.128Z,5.03
2019-05-13T01:13:43.360Z,6.27
2019-05-13T01:14:20.839Z,5.90
2019-05-13T01:14:56.741Z,6.07
2019-05-13T01:15:34.337Z,6.73
2019-05-13T01:16:10.653Z,5.90
2019-05-13T01:16:46.662Z,5.50
2019-05-13T01:17:23.519Z,6.00
2019-05-13T01:17:59.611Z,6.47
2019-05-13T01:18:35.545Z,5.70
2019-05-13T01:19:11.438Z,6.57
2019-05-13T01:19:47.311Z,5.67
2019-05-13T01:20:23.979Z,6.10
2019-05-13T01:20:59.917Z,6.40
2019-05-13T01:21:35.776Z,6.43
2019-05-13T01:22:13.487Z,5.40
2019-05-13T01:22:49.524Z,6.20
2019-05-13T01:23:26.076Z,5.80
2019-05-13T01:24:03.677Z,5.20
2019-05-13T01:24:40.515Z,5.00
2019-05-13T01:25:16.498Z,6.33
2019-05-13T01:25:54.496Z,4.97
2019-05-13T01:26:30.115Z,6.57
2019-05-13T01:27:06.012Z,5.97
2019-05-13T01:27:43.993Z,5.70
2019-05-13T01:28:19.558Z,5.97
2019-05-13T01:28:55.506Z,5.30
2019-05-13T01:29:31.413Z,5.53
2019-05-13T01:30:07.762Z,5.70
2019-05-13T01:30:44.074Z,6.40
2019-05-13T01:31:20.045Z,6.20
2019-05-13T01:31:55.891Z,5.53
2019-05-13T01:32:34.181Z,5.00
2019-05-13T01:33:09.752Z,5.13
2019-05-13T01:33:45.725Z,5.90
2019-05-13T01:34:23.618Z,6.33
2019-05-13T01:34:59.318Z,5.13
2019-05-13T01:35:35.270Z,4.87
2019-05-13T01:36:13.254Z,4.60
2019-05-13T01:36:49.071Z,4.90
2019-05-13T01:37:39.207Z,5.20
2019-05-13T01:38:04.586Z,5.43
2019-05-13T01:38:40.343Z,5.40
2019-05-13T01:39:16.246Z,4.60
2019-05-13T01:39:54.034Z,4.20
2019-05-13T01:40:29.923Z,4.53
2019-05-13T01:41:05.876Z,4.73
2019-05-13T01:43:26.124Z,5.00
2019-05-13T01:44:03.990Z,5.93
2019-05-13T01:44:39.700Z,6.07
2019-05-13T01:45:15.711Z,5.23
2019-05-13T01:45:53.682Z,5.87
2019-05-13T01:46:34.528Z,5.00
2019-05-13T01:47:10.057Z,4.83
2019-05-13T01:47:46.024Z,4.60
2019-05-13T01:48:23.887Z,5.20
2019-05-13T01:48:59.745Z,4.30
2019-05-13T01:49:35.670Z,3.93
2019-05-13T01:50:14.019Z,4.27
2019-05-13T01:50:49.415Z,4.30
2019-05-13T01:51:25.409Z,4.30
2019-05-13T01:52:03.875Z,4.40
2019-05-13T01:52:38.959Z,4.40
2019-05-13T01:53:14.813Z,4.63
2019-05-13T01:53:50.693Z,4.43
2019-05-13T01:54:26.697Z,4.80
2019-05-13T01:55:04.054Z,5.27
2019-05-13T01:55:40.102Z,4.23
2019-05-13T01:56:16.076Z,5.07
2019-05-13T01:56:53.512Z,5.03
2019-05-13T01:57:29.525Z,5.10
2019-05-13T01:58:05.554Z,6.40
2019-05-13T01:58:41.452Z,5.10
2019-05-13T01:59:17.317Z,4.50
2019-05-13T01:59:53.898Z,4.30
2019-05-13T02:00:29.934Z,4.87
2019-05-13T02:01:05.865Z,5.70
2019-05-13T02:01:44.063Z,5.40
2019-05-13T02:02:19.597Z,4.40
2019-05-13T02:02:55.478Z,5.37
2019-05-13T02:03:33.638Z,4.77
2019-05-13T02:04:09.164Z,5.10
2019-05-13T02:04:45.057Z,4.93
2019-05-13T02:05:21.067Z,4.63
2019-05-13T02:05:57.022Z,5.10
2019-05-13T02:06:33.581Z,4.83
2019-05-13T02:07:09.749Z,5.70
2019-05-13T02:07:59.667Z,5.37
2019-05-13T02:08:25.885Z,5.20
2019-05-13T02:09:03.837Z,5.80
2019-05-13T02:09:39.671Z,5.80
2019-05-13T02:10:18.210Z,5.70
2019-05-13T02:10:55.337Z,6.10
2019-05-13T02:11:33.998Z,5.50
2019-05-13T02:12:09.187Z,9.07
2019-05-13T02:12:45.157Z,8.77
2019-05-13T02:13:21.056Z,6.80
2019-05-13T02:13:56.997Z,5.20
2019-05-13T02:14:34.355Z,5.90
2019-05-13T02:15:10.414Z,5.67
2019-05-13T02:15:46.311Z,6.20
2019-05-13T02:16:24.256Z,6.77
2019-05-13T02:16:59.882Z,5.33
2019-05-13T02:17:35.789Z,5.50
2019-05-13T02:18:13.455Z,5.23
2019-05-13T02:18:49.413Z,5.97
2019-05-13T02:19:25.331Z,6.03
2019-05-13T02:20:03.700Z,6.90
2019-05-13T02:20:38.832Z,5.77
2019-05-13T02:21:14.766Z,5.83
2019-05-13T02:21:50.888Z,6.07
2019-05-13T02:22:29.939Z,6.83
2019-05-13T02:23:06.163Z,7.07
2019-05-13T02:23:44.293Z,5.80
2019-05-13T02:24:20.186Z,5.00
2019-05-13T02:24:56.133Z,6.07
2019-05-13T02:25:34.049Z,6.40
2019-05-13T02:26:09.771Z,6.67
2019-05-13T02:26:47.977Z,6.40
2019-05-13T02:27:25.504Z,5.40
2019-05-13T02:28:09.115Z,5.63
2019-05-13T02:28:39.232Z,5.17
2019-05-13T02:29:15.203Z,5.67
2019-05-13T02:29:51.102Z,5.87
2019-05-13T02:30:27.161Z,6.53
2019-05-13T02:31:03.252Z,5.93
2019-05-13T02:31:46.480Z,6.70
2019-05-13T02:32:16.917Z,5.97
2019-05-13T02:32:53.190Z,6.27
2019-05-13T02:33:29.228Z,5.70
2019-05-13T02:34:05.110Z,5.90
2019-05-13T02:34:43.707Z,5.80
2019-05-13T02:35:18.680Z,6.20
2019-05-13T02:35:54.629Z,5.97
2019-05-13T02:36:33.044Z,5.40
2019-05-13T02:37:08.437Z,6.43
2019-05-13T02:37:44.307Z,6.47
2019-05-13T02:38:26.325Z,7.37
2019-05-13T02:38:57.916Z,6.83
2019-05-13T02:39:33.843Z,5.73
2019-05-13T02:40:13.147Z,5.13
2019-05-13T02:40:47.448Z,5.57
2019-05-13T02:41:23.343Z,5.60
2019-05-13T02:42:03.010Z,4.90
2019-05-13T02:42:37.076Z,6.00
2019-05-13T02:43:13.752Z,4.93
2019-05-13T02:43:52.555Z,5.10
2019-05-13T02:44:27.459Z,5.97
2019-05-13T02:45:03.942Z,5.20
2019-05-13T02:45:42.858Z,5.00
2019-05-13T02:46:18.905Z,4.83
2019-05-13T02:46:54.852Z,4.70
2019-05-13T02:47:33.562Z,5.00
2019-05-13T02:48:12.561Z,4.97
2019-05-13T02:48:47.946Z,4.57
2019-05-13T02:49:23.825Z,4.63
2019-05-13T02:50:03.878Z,4.57
2019-05-13T02:50:44.186Z,4.40
2019-05-13T02:51:18.989Z,5.37
2019-05-13T02:51:55.087Z,4.40
2019-05-13T02:52:33.462Z,4.90
2019-05-13T02:53:08.875Z,3.97
2019-05-13T02:53:52.259Z,4.43
2019-05-13T02:54:27.163Z,4.63
2019-05-13T02:55:03.916Z,4.13
2019-05-13T02:55:43.452Z,4.57
2019-05-13T02:56:17.930Z,5.00
2019-05-13T02:56:53.819Z,4.73
2019-05-13T02:57:32.800Z,5.50
2019-05-13T02:58:07.523Z,5.30
2019-05-13T03:01:04.117Z,4.00
2019-05-13T03:01:43.026Z,3.90
2019-05-13T03:02:17.877Z,4.50
2019-05-13T03:02:53.743Z,4.47
2019-05-13T03:03:32.560Z,4.23
2019-05-13T03:04:07.319Z,3.63
2019-05-13T03:04:43.623Z,4.10
2019-05-13T03:05:21.962Z,4.20
2019-05-13T03:05:57.454Z,4.03
2019-05-13T03:06:43.520Z,4.57
2019-05-13T03:07:23.025Z,4.20
2019-05-13T03:07:57.567Z,4.27
2019-05-13T03:08:43.827Z,4.10
2019-05-13T03:09:12.711Z,3.80
2019-05-13T03:09:52.701Z,4.37
2019-05-13T03:10:28.892Z,4.90
2019-05-13T03:11:04.763Z,3.37
2019-05-13T03:11:42.339Z,4.67
2019-05-13T03:12:18.405Z,4.47
2019-05-13T03:12:54.298Z,4.23
2019-05-13T03:13:32.747Z,3.33
2019-05-13T03:14:07.950Z,3.83
2019-05-13T03:14:47.932Z,4.57
2019-05-13T03:15:23.104Z,4.10
2019-05-13T03:16:27.442Z,4.50
2019-05-13T03:17:14.641Z,4.63
2019-05-13T03:18:13.292Z,4.13
2019-05-13T03:18:46.687Z,4.47
2019-05-13T03:19:25.245Z,3.40
2019-05-13T03:20:04.149Z,3.87
2019-05-13T03:20:39.466Z,3.80
2019-05-13T03:21:15.501Z,3.73
2019-05-13T03:21:52.510Z,3.53
2019-05-13T03:22:28.795Z,3.70
2019-05-13T03:23:04.777Z,4.27
2019-05-13T03:23:43.998Z,3.80
2019-05-13T03:24:22.409Z,4.10
2019-05-13T03:24:56.949Z,3.80
2019-05-13T03:25:33.348Z,3.20
2019-05-13T03:26:12.661Z,3.40
2019-05-13T03:26:47.222Z,4.30
2019-05-13T03:27:25.231Z,4.27
2019-05-13T03:28:03.272Z,4.13
2019-05-13T03:28:38.777Z,3.70
2019-05-13T03:29:14.732Z,3.87
2019-05-13T03:29:53.349Z,3.73
2019-05-13T03:30:28.448Z,4.20
2019-05-13T03:31:07.290Z,3.63
2019-05-13T03:31:46.225Z,4.53
2019-05-13T03:32:25.741Z,3.63
2019-05-13T03:33:02.049Z,4.20
2019-05-13T03:33:37.576Z,3.57
2019-05-13T03:34:15.767Z,3.67
2019-05-13T03:34:56.046Z,4.57
2019-05-13T03:35:28.397Z,3.75
2019-05-13T03:36:06.651Z,4.70
2019-05-13T03:36:46.130Z,3.23
2019-05-13T03:37:26.028Z,3.30
2019-05-13T03:37:59.035Z,5.00
2019-05-13T03:38:54.796Z,4.70
2019-05-13T03:39:16.396Z,4.13
2019-05-13T03:39:52.312Z,4.13
2019-05-13T03:40:32.820Z,3.85
2019-05-13T03:41:22.566Z,3.80
2019-05-13T03:46:08.508Z,4.53
2019-05-13T03:46:44.370Z,4.10
2019-05-13T03:47:23.019Z,3.60
2019-05-13T03:47:59.574Z,3.20
2019-05-13T03:48:36.749Z,3.73
2019-05-13T03:49:14.390Z,3.80
2019-05-13T03:49:54.796Z,3.00
2019-05-13T03:50:34.416Z,3.47
2019-05-13T03:51:12.911Z,3.40
2019-05-13T03:51:53.206Z,4.43
2019-05-13T03:52:27.888Z,3.50
2019-05-13T03:53:03.799Z,3.43
2019-05-13T03:53:42.946Z,3.10
2019-05-13T03:54:17.399Z,3.70
2019-05-13T03:54:53.417Z,2.73
2019-05-13T03:55:32.544Z,3.73
2019-05-13T03:56:07.728Z,3.60
2019-05-13T03:56:43.592Z,3.20
2019-05-13T03:57:23.067Z,4.23
2019-05-13T03:57:58.035Z,3.87
2019-05-13T03:58:34.143Z,3.67
2019-05-13T03:59:13.125Z,3.77
2019-05-13T03:59:47.733Z,3.60
2019-05-13T04:00:23.917Z,2.70
2019-05-13T04:01:02.903Z,3.73
2019-05-13T04:01:37.717Z,2.90
2019-05-13T04:02:13.672Z,3.60
2019-05-13T04:02:52.148Z,3.80
2019-05-13T04:03:27.645Z,3.47
2019-05-13T04:04:06.433Z,2.50
2019-05-13T04:04:42.595Z,3.30
2019-05-13T04:05:18.530Z,3.20
2019-05-13T04:05:54.836Z,3.37
2019-05-13T04:06:32.351Z,3.20
2019-05-13T04:07:08.453Z,3.43
2019-05-13T04:07:44.357Z,2.63
2019-05-13T04:08:22.782Z,2.87
2019-05-13T04:09:17.085Z,2.87
2019-05-13T04:09:36.797Z,2.90
2019-05-13T04:10:13.350Z,3.20
2019-05-13T04:10:52.507Z,3.87
2019-05-13T04:11:28.732Z,3.30
2019-05-13T04:12:04.599Z,3.57
2019-05-13T04:12:42.585Z,3.70
2019-05-13T04:13:18.492Z,3.50
2019-05-13T04:13:57.546Z,3.03
2019-05-13T04:14:34.018Z,3.10
2019-05-13T04:15:12.600Z,2.43
2019-05-13T04:15:48.362Z,3.90
2019-05-13T04:16:32.295Z,3.40
2019-05-13T04:17:07.532Z,3.37
2019-05-13T04:17:44.624Z,3.30
2019-05-13T04:18:23.372Z,3.00
2019-05-13T04:18:58.253Z,3.87
2019-05-13T04:19:34.479Z,3.63
2019-05-13T04:20:12.553Z,3.23
2019-05-13T04:20:48.452Z,3.13
2019-05-13T04:21:25.814Z,3.07
2019-05-13T04:22:02.407Z,3.13
2019-05-13T04:22:38.600Z,3.70
2019-05-13T04:23:14.510Z,3.37
2019-05-13T04:23:53.009Z,3.53
2019-05-13T04:24:28.881Z,3.10
2019-05-13T04:25:06.094Z,3.23
2019-05-13T04:25:44.865Z,3.60
2019-05-13T04:26:24.000Z,3.63
2019-05-13T04:27:02.793Z,3.27
2019-05-13T04:27:37.953Z,2.93
2019-05-13T04:28:13.800Z,3.90
2019-05-13T04:28:52.872Z,3.30
2019-05-13T04:29:28.923Z,3.37
2019-05-13T04:30:05.037Z,3.50
2019-05-13T04:30:43.528Z,3.30
2019-05-13T04:31:22.774Z,3.37
2019-05-13T04:31:57.533Z,2.70
2019-05-13T04:32:33.781Z,3.33
2019-05-13T04:33:12.957Z,3.03
2019-05-13T04:33:48.327Z,2.60
2019-05-13T04:35:28.892Z,3.43
2019-05-13T04:36:05.003Z,3.10
2019-05-13T04:36:43.051Z,2.80
2019-05-13T04:37:22.077Z,2.83
2019-05-13T04:38:02.447Z,3.73
2019-05-13T04:38:37.421Z,3.00
2019-05-13T04:39:14.081Z,3.20
2019-05-13T04:39:56.385Z,3.00
2019-05-13T04:40:33.174Z,3.20
2019-05-13T04:41:11.123Z,3.43
2019-05-13T04:41:46.596Z,3.50
2019-05-13T04:42:23.285Z,2.97
2019-05-13T04:43:02.611Z,3.20
2019-05-13T04:43:37.098Z,3.43
2019-05-13T04:44:13.350Z,2.90
2019-05-13T04:44:49.347Z,3.60
2019-05-13T04:45:25.381Z,3.30
2019-05-13T04:46:02.512Z,3.20
2019-05-13T04:46:38.810Z,3.40
2019-05-13T04:47:18.652Z,3.73
2019-05-13T04:47:54.531Z,3.40
2019-05-13T04:48:34.039Z,3.70
2019-05-13T04:49:12.570Z,3.27
2019-05-13T04:49:47.777Z,2.93
2019-05-13T04:50:26.152Z,3.20
2019-05-13T04:51:03.221Z,3.77
2019-05-13T04:51:42.107Z,3.37
2019-05-13T04:52:17.273Z,3.43
2019-05-13T04:52:56.226Z,3.13
2019-05-13T04:53:33.432Z,3.13
2019-05-13T04:54:12.769Z,3.60
2019-05-13T04:55:22.887Z,3.10
2019-05-13T04:55:58.790Z,3.57
2019-05-13T04:56:34.773Z,3.00
2019-05-13T04:57:12.338Z,3.90
2019-05-13T04:57:48.655Z,3.97
2019-05-13T04:58:24.736Z,3.30
2019-05-13T04:59:02.967Z,3.30
2019-05-13T04:59:41.329Z,3.13
2019-05-13T05:00:17.697Z,3.50
2019-05-13T05:01:32.213Z,3.30
2019-05-13T05:02:51.297Z,2.20
2019-05-13T05:03:41.254Z,2.77
2019-05-13T05:04:55.067Z,3.13
2019-05-13T05:05:54.023Z,2.83
2019-05-13T05:06:57.584Z,3.57
2019-05-13T05:07:43.974Z,2.30
2019-05-13T05:09:03.052Z,3.33
2019-05-13T05:10:17.739Z,3.10
2019-05-13T05:11:05.200Z,3.10
2019-05-13T05:12:15.443Z,3.33
2019-05-13T05:13:18.484Z,3.10
2019-05-13T05:14:32.683Z,3.70
2019-05-13T05:15:47.222Z,3.67
2019-05-13T05:17:03.570Z,2.67
2019-05-13T05:18:11.629Z,3.43
2019-05-13T05:19:26.542Z,3.50
2019-05-13T05:20:23.887Z,3.80
2019-05-13T05:21:11.934Z,3.40
2019-05-13T05:22:02.913Z,3.27
2019-05-13T05:23:16.334Z,3.33
2019-05-13T05:24:38.446Z,3.33
2019-05-13T05:25:34.649Z,4.60
2019-05-13T05:26:27.865Z,3.60
2019-05-13T05:28:02.233Z,4.37
2019-05-13T05:29:11.457Z,3.80
2019-05-13T05:29:58.305Z,3.90
2019-05-13T05:31:14.301Z,4.00
2019-05-13T05:32:18.161Z,4.10
2019-05-13T05:33:05.545Z,3.67
2019-05-13T05:34:21.893Z,3.73
2019-05-13T05:35:45.865Z,4.00
2019-05-13T05:36:44.167Z,3.90
2019-05-13T05:37:35.521Z,5.00
2019-05-13T05:38:43.245Z,4.07
2019-05-13T05:39:24.535Z,4.03
2019-05-13T05:40:01.927Z,4.50
2019-05-13T05:40:39.613Z,3.83
2019-05-13T05:41:18.253Z,4.00
2019-05-13T05:41:56.381Z,4.20
2019-05-13T05:42:33.760Z,4.50
2019-05-13T05:43:11.588Z,4.60
2019-05-13T05:43:48.407Z,4.60
2019-05-13T05:44:24.861Z,4.10
2019-05-13T05:45:02.901Z,4.00
2019-05-13T05:45:41.848Z,3.50
2019-05-13T05:46:21.848Z,4.30
2019-05-13T05:47:02.156Z,4.27
2019-05-13T05:47:38.219Z,4.13
2019-05-13T05:48:17.528Z,4.33
2019-05-13T05:48:54.948Z,3.87
2019-05-13T05:49:31.998Z,3.60
2019-05-13T05:50:08.444Z,4.27
2019-05-13T05:50:44.942Z,4.03
2019-05-13T05:51:22.235Z,3.43
2019-05-13T05:52:06.251Z,3.90
2019-05-13T05:52:45.410Z,3.57
2019-05-13T05:53:22.911Z,4.73
2019-05-13T05:54:02.363Z,3.73
2019-05-13T05:54:38.898Z,4.13
2019-05-13T05:55:14.772Z,4.50
2019-05-13T05:55:52.284Z,3.90
2019-05-13T05:56:32.520Z,5.17
2019-05-13T05:57:09.142Z,4.60
2019-05-13T05:57:45.268Z,4.77
2019-05-13T05:58:22.836Z,3.93
2019-05-13T05:59:02.734Z,4.30
2019-05-13T05:59:38.882Z,4.00
2019-05-13T06:00:14.996Z,4.10
2019-05-13T06:00:52.472Z,4.57
2019-05-13T06:01:28.419Z,4.30
2019-05-13T06:02:04.400Z,4.33
2019-05-13T06:02:42.731Z,3.73
2019-05-13T06:03:21.910Z,4.17
2019-05-13T06:04:01.538Z,4.63
2019-05-13T06:04:37.793Z,3.97
2019-05-13T06:05:13.810Z,4.97
2019-05-13T06:05:51.271Z,4.23
2019-05-13T06:06:27.205Z,4.20
2019-05-13T06:07:03.788Z,4.13
2019-05-13T06:07:42.156Z,4.50
2019-05-13T06:08:18.168Z,4.47
2019-05-13T06:08:54.123Z,4.30
2019-05-13T06:09:32.243Z,4.50
2019-05-13T06:10:08.742Z,4.70
2019-05-13T06:10:50.078Z,5.23
2019-05-13T06:11:22.801Z,4.30
2019-05-13T06:11:58.737Z,5.27
2019-05-13T06:12:34.914Z,4.40
2019-05-13T06:13:12.203Z,5.47
2019-05-13T06:13:52.187Z,4.53
2019-05-13T06:14:27.051Z,4.50
2019-05-13T06:15:03.140Z,4.83
2019-05-13T06:15:39.129Z,4.27
2019-05-13T06:16:15.164Z,3.83
2019-05-13T06:16:51.847Z,5.80
2019-05-13T06:17:27.920Z,3.93
2019-05-13T06:18:03.931Z,4.30
2019-05-13T06:18:41.522Z,4.40
2019-05-13T06:19:18.122Z,4.53
2019-05-13T06:19:54.157Z,4.50
2019-05-13T06:20:31.687Z,4.90
2019-05-13T06:21:07.795Z,5.23
2019-05-13T06:21:43.792Z,4.20
2019-05-13T06:22:21.640Z,4.30
2019-05-13T06:22:57.451Z,4.40
2019-05-13T06:23:33.372Z,4.27
2019-05-13T06:24:11.596Z,4.70
2019-05-13T06:24:48.203Z,4.70
2019-05-13T06:25:24.105Z,5.07
2019-05-13T06:26:01.947Z,5.10
2019-05-13T06:26:38.059Z,5.00
2019-05-13T06:27:14.027Z,4.93
2019-05-13T06:27:51.237Z,4.90
2019-05-13T06:28:27.230Z,5.60
2019-05-13T06:29:03.105Z,5.33
2019-05-13T06:29:38.969Z,4.50
2019-05-13T06:30:15.223Z,5.20
2019-05-13T06:30:53.323Z,4.70
2019-05-13T06:31:29.195Z,5.57
2019-05-13T06:32:18.154Z,5.23
2019-05-13T06:32:43.028Z,5.23
2019-05-13T06:33:21.152Z,5.30
2019-05-13T06:33:57.248Z,4.63
2019-05-13T06:34:36.230Z,5.30
2019-05-13T06:35:12.170Z,6.13
2019-05-13T06:35:48.082Z,5.40
2019-05-13T06:36:23.969Z,5.43
2019-05-13T06:37:01.761Z,5.77
2019-05-13T06:37:37.657Z,5.30
2019-05-13T06:38:16.589Z,5.20
2019-05-13T06:38:52.594Z,5.17
2019-05-13T06:39:28.455Z,4.37
2019-05-13T06:40:04.434Z,5.57
2019-05-13T06:40:42.397Z,4.90
2019-05-13T06:41:18.049Z,5.50
2019-05-13T06:41:53.910Z,4.80
2019-05-13T06:42:32.270Z,4.73
2019-05-13T06:43:07.505Z,5.53
2019-05-13T06:43:43.517Z,5.00
2019-05-13T06:44:21.493Z,5.20
2019-05-13T06:45:01.948Z,5.37
2019-05-13T06:45:37.733Z,4.90
2019-05-13T06:46:13.681Z,4.97
2019-05-13T06:46:51.668Z,5.80
2019-05-13T06:47:27.225Z,6.00
2019-05-13T06:48:04.282Z,5.43
2019-05-13T06:48:41.432Z,5.43
2019-05-13T06:49:17.529Z,4.80
2019-05-13T06:49:59.232Z,5.07
2019-05-13T06:50:35.470Z,4.80
2019-05-13T06:56:38.959Z,5.83
2019-05-13T06:57:17.684Z,5.47
2019-05-13T06:57:53.901Z,5.40
2019-05-13T06:58:32.505Z,5.47
2019-05-13T06:59:08.964Z,5.77
2019-05-13T07:01:43.405Z,5.73
2019-05-13T07:02:21.578Z,5.60
2019-05-13T07:03:02.298Z,5.70
2019-05-13T07:03:47.878Z,6.20
2019-05-13T07:04:24.025Z,4.93
2019-05-13T07:05:02.329Z,5.23
2019-05-13T07:05:37.577Z,4.83
2019-05-13T07:06:13.609Z,4.57
2019-05-13T07:06:56.040Z,4.60
2019-05-13T07:07:31.705Z,4.83
2019-05-13T07:08:07.196Z,5.30
2019-05-13T07:08:43.920Z,4.47
2019-05-13T07:09:21.599Z,5.20
2019-05-13T07:09:59.055Z,4.63
2019-05-13T07:10:35.008Z,3.97
2019-05-13T07:11:18.507Z,4.33
2019-05-13T07:11:48.805Z,4.30
2019-05-13T07:12:24.954Z,4.67
2019-05-13T07:13:02.184Z,4.50
2019-05-13T07:13:42.287Z,4.30
2019-05-13T07:14:18.257Z,4.60
2019-05-13T07:14:57.372Z,4.50
2019-05-13T07:15:36.216Z,3.80
2019-05-13T07:16:12.194Z,4.43
2019-05-13T07:16:48.169Z,5.20
2019-05-13T07:17:24.183Z,4.37
2019-05-13T07:18:02.334Z,4.40
2019-05-13T07:18:37.847Z,3.87
2019-05-13T07:19:13.715Z,3.30
2019-05-13T07:19:51.718Z,4.17
2019-05-13T07:20:27.403Z,3.53
2019-05-13T07:21:03.306Z,4.20
2019-05-13T07:21:41.615Z,3.37
2019-05-13T07:22:23.537Z,3.27
2019-05-13T07:23:01.622Z,3.23
2019-05-13T07:23:37.090Z,3.10
2019-05-13T07:24:13.106Z,4.13
2019-05-13T07:24:49.066Z,3.60
2019-05-13T07:25:26.728Z,3.60
2019-05-13T07:26:03.064Z,3.33
2019-05-13T07:26:38.938Z,4.03
2019-05-13T07:27:14.854Z,3.53
2019-05-13T07:27:51.504Z,3.20
2019-05-13T07:28:27.815Z,3.83
2019-05-13T07:29:04.379Z,2.97
2019-05-13T07:29:42.346Z,3.30
2019-05-13T07:30:24.759Z,3.10
2019-05-13T07:31:04.421Z,2.80
2019-05-13T07:31:42.211Z,3.70
2019-05-13T07:32:18.379Z,3.00
2019-05-13T07:32:58.037Z,3.30
2019-05-13T07:33:38.694Z,3.50
2019-05-13T07:34:17.622Z,3.40
2019-05-13T07:34:56.435Z,4.57
2019-05-13T07:35:37.929Z,4.00
2019-05-13T07:36:12.731Z,3.20
2019-05-13T07:36:51.178Z,3.10
2019-05-13T07:37:26.533Z,3.27
2019-05-13T07:38:02.637Z,3.50
2019-05-13T07:38:38.494Z,3.13
2019-05-13T07:39:14.370Z,3.90
2019-05-13T07:39:53.023Z,3.57
2019-05-13T07:40:32.057Z,2.50
2019-05-13T07:41:07.637Z,2.60
2019-05-13T07:41:43.452Z,2.93
2019-05-13T07:42:22.205Z,3.17
2019-05-13T07:43:01.552Z,3.37
2019-05-13T07:43:37.383Z,3.00
2019-05-13T07:44:28.069Z,3.03
2019-05-13T07:45:03.957Z,3.20
2019-05-13T07:45:42.084Z,2.87
2019-05-13T07:46:17.657Z,2.87
2019-05-13T07:46:53.584Z,3.20
2019-05-13T07:47:31.489Z,2.90
2019-05-13T07:48:19.438Z,3.77
2019-05-13T07:48:44.888Z,3.43
2019-05-13T07:49:22.520Z,2.80
2019-05-13T07:49:58.528Z,3.20
2019-05-13T07:50:34.506Z,3.27
2019-05-13T07:51:11.940Z,3.20
2019-05-13T07:51:51.898Z,2.60
2019-05-13T07:52:26.995Z,3.30
2019-05-13T07:53:02.934Z,4.03
2019-05-13T07:53:38.869Z,3.00
2019-05-13T07:54:22.046Z,2.70
2019-05-13T07:54:57.681Z,3.00
2019-05-13T07:55:33.730Z,3.03
2019-05-13T07:56:11.768Z,3.27
2019-05-13T07:56:47.242Z,3.00
2019-05-13T07:57:23.128Z,2.97
2019-05-13T07:58:02.298Z,2.90
2019-05-13T07:58:38.235Z,2.70
2019-05-13T07:59:22.905Z,3.23
2019-05-13T08:00:02.009Z,3.20
2019-05-13T08:00:41.927Z,2.80
2019-05-13T08:01:52.729Z,3.10
2019-05-13T08:02:28.719Z,2.70
2019-05-13T08:03:04.630Z,2.60
2019-05-13T08:03:42.213Z,3.00
2019-05-13T08:04:22.691Z,3.60
2019-05-13T08:04:56.363Z,2.90
2019-05-13T08:05:35.181Z,3.13
2019-05-13T08:06:11.271Z,2.70
2019-05-13T08:06:52.401Z,3.50
2019-05-13T08:07:28.491Z,3.00
2019-05-13T08:08:04.439Z,3.30
2019-05-13T08:08:41.641Z,3.20
2019-05-13T08:09:21.451Z,3.23
2019-05-13T08:10:00.105Z,2.97
2019-05-13T08:10:34.464Z,2.75
2019-05-13T08:11:12.688Z,2.77
2019-05-13T08:12:04.307Z,3.20
2019-05-13T08:12:25.884Z,3.10
2019-05-13T08:13:02.455Z,3.17
2019-05-13T08:13:38.421Z,2.60
2019-05-13T08:14:14.363Z,2.80
2019-05-13T08:14:52.122Z,3.50
2019-05-13T08:15:28.548Z,3.63
2019-05-13T08:16:07.360Z,2.93
2019-05-13T08:16:43.206Z,2.93
2019-05-13T08:17:19.114Z,3.10
2019-05-13T08:17:55.967Z,2.30
2019-05-13T08:18:32.206Z,2.60
2019-05-13T08:19:08.108Z,2.67
2019-05-13T08:19:44.020Z,3.43
2019-05-13T08:21:21.876Z,2.80
2019-05-13T08:22:01.846Z,2.97
2019-05-13T08:22:37.078Z,3.00
2019-05-13T08:23:12.998Z,2.80
2019-05-13T08:23:52.645Z,2.83
2019-05-13T08:24:37.505Z,3.33
2019-05-13T08:25:15.201Z,3.23
2019-05-13T08:25:51.526Z,3.37
2019-05-13T08:26:27.525Z,2.50
2019-05-13T08:27:03.412Z,3.40
2019-05-13T08:27:41.958Z,3.03
2019-05-13T08:28:17.836Z,3.30
2019-05-13T08:29:01.382Z,2.93
2019-05-13T08:29:35.028Z,2.60
2019-05-13T08:30:12.001Z,2.83
2019-05-13T08:30:48.019Z,2.60
2019-05-13T08:31:23.939Z,2.97
2019-05-13T08:32:02.403Z,2.57
2019-05-13T08:32:37.656Z,2.97
2019-05-13T08:33:13.557Z,3.07
2019-05-13T08:33:51.904Z,2.70
2019-05-13T08:34:32.876Z,3.30
2019-05-13T08:35:09.259Z,3.00
2019-05-13T08:35:47.029Z,3.00
2019-05-13T08:36:25.093Z,2.55
2019-05-13T08:37:02.732Z,2.90
2019-05-13T08:37:38.720Z,2.43
2019-05-13T08:38:14.618Z,3.07
2019-05-13T08:38:51.917Z,3.23
2019-05-13T08:39:34.971Z,3.00
2019-05-13T08:40:06.238Z,2.70
2019-05-13T08:40:42.530Z,3.23
2019-05-13T08:41:20.712Z,2.70
2019-05-13T08:42:11.818Z,3.07
2019-05-13T08:42:34.223Z,2.37
2019-05-13T08:43:12.050Z,2.70
2019-05-13T08:43:47.886Z,3.53
2019-05-13T08:44:23.828Z,2.90
2019-05-13T08:45:01.898Z,3.10
2019-05-13T08:45:37.546Z,3.70
2019-05-13T08:46:13.873Z,3.30
2019-05-13T08:46:51.954Z,2.53
2019-05-13T08:47:27.559Z,3.00
2019-05-13T08:48:03.565Z,3.37
2019-05-13T08:48:39.479Z,2.70
2019-05-13T08:49:15.316Z,2.87
2019-05-13T08:49:52.025Z,3.53
2019-05-13T08:50:28.162Z,3.03
2019-05-13T08:51:04.047Z,2.93
2019-05-13T08:51:42.228Z,2.67
2019-05-13T08:52:17.648Z,3.07